sensor_id;sensor_type;location;lat;lon;timestamp;P1;durP1;ratioP1;P2;durP2;ratioP2
32399;SDS011;45045;45.440;9.178;2023-05-07T00:00:29;28.08;;;23.75;;
32399;SDS011;45045;45.440;9.178;2023-05-07T00:02:55;31.13;;;26.60;;
32399;SDS011;45045;45.440;9.178;2023-05-07T00:05:20;24.58;;;19.65;;
32399;SDS011;45045;45.440;9.178;2023-05-07T00:07:46;17.70;;;11.98;;
32399;SDS011;45045;45.440;9.178;2023-05-07T00:10:12;10.75;;;6.80;;
32399;SDS011;45045;45.440;9.178;2023-05-07T00:12:40;8.60;;;6.05;;
32399;SDS011;45045;45.440;9.178;2023-05-07T00:15:06;8.00;;;5.25;;
32399;SDS011;45045;45.440;9.178;2023-05-07T00:17:32;6.50;;;4.63;;
32399;SDS011;45045;45.440;9.178;2023-05-07T00:19:58;12.32;;;5.72;;
32399;SDS011;45045;45.440;9.178;2023-05-07T00:22:24;7.88;;;3.40;;
32399;SDS011;45045;45.440;9.178;2023-05-07T00:24:50;4.70;;;2.97;;
32399;SDS011;45045;45.440;9.178;2023-05-07T00:27:16;5.63;;;2.47;;
32399;SDS011;45045;45.440;9.178;2023-05-07T00:29:41;6.25;;;2.67;;
32399;SDS011;45045;45.440;9.178;2023-05-07T00:32:07;6.18;;;2.72;;
32399;SDS011;45045;45.440;9.178;2023-05-07T00:34:33;7.45;;;2.97;;
32399;SDS011;45045;45.440;9.178;2023-05-07T00:36:59;4.65;;;2.25;;
32399;SDS011;45045;45.440;9.178;2023-05-07T00:39:26;5.03;;;2.65;;
32399;SDS011;45045;45.440;9.178;2023-05-07T00:41:51;5.25;;;2.70;;
32399;SDS011;45045;45.440;9.178;2023-05-07T00:44:17;7.40;;;2.47;;
32399;SDS011;45045;45.440;9.178;2023-05-07T00:46:43;10.15;;;2.28;;
32399;SDS011;45045;45.440;9.178;2023-05-07T00:51:40;4.93;;;1.92;;
32399;SDS011;45045;45.440;9.178;2023-05-07T00:54:06;3.85;;;2.55;;
32399;SDS011;45045;45.440;9.178;2023-05-07T00:56:34;4.80;;;1.77;;
32399;SDS011;45045;45.440;9.178;2023-05-07T00:59:00;5.57;;;1.52;;
32399;SDS011;45045;45.440;9.178;2023-05-07T01:01:27;5.45;;;1.90;;
32399;SDS011;45045;45.440;9.178;2023-05-07T01:03:53;5.60;;;1.80;;
32399;SDS011;45045;45.440;9.178;2023-05-07T01:06:20;5.97;;;1.67;;
32399;SDS011;45045;45.440;9.178;2023-05-07T01:08:48;9.73;;;5.20;;
32399;SDS011;45045;45.440;9.178;2023-05-07T01:11:15;12.77;;;7.25;;
32399;SDS011;45045;45.440;9.178;2023-05-07T01:13:44;10.93;;;6.93;;
32399;SDS011;45045;45.440;9.178;2023-05-07T01:16:10;11.50;;;7.32;;
32399;SDS011;45045;45.440;9.178;2023-05-07T01:18:36;8.80;;;5.35;;
32399;SDS011;45045;45.440;9.178;2023-05-07T01:21:02;9.50;;;4.45;;
32399;SDS011;45045;45.440;9.178;2023-05-07T01:23:29;5.13;;;2.70;;
32399;SDS011;45045;45.440;9.178;2023-05-07T01:25:56;6.57;;;3.28;;
32399;SDS011;45045;45.440;9.178;2023-05-07T01:28:21;5.15;;;2.60;;
32399;SDS011;45045;45.440;9.178;2023-05-07T01:30:48;6.45;;;2.80;;
32399;SDS011;45045;45.440;9.178;2023-05-07T01:33:18;7.25;;;3.33;;
32399;SDS011;45045;45.440;9.178;2023-05-07T01:35:49;12.65;;;6.05;;
32399;SDS011;45045;45.440;9.178;2023-05-07T01:38:17;7.28;;;4.00;;
32399;SDS011;45045;45.440;9.178;2023-05-07T01:40:43;12.25;;;8.18;;
32399;SDS011;45045;45.440;9.178;2023-05-07T01:43:10;9.48;;;6.57;;
32399;SDS011;45045;45.440;9.178;2023-05-07T01:45:36;8.98;;;5.00;;
32399;SDS011;45045;45.440;9.178;2023-05-07T01:48:03;12.02;;;7.07;;
32399;SDS011;45045;45.440;9.178;2023-05-07T01:50:29;9.43;;;4.85;;
32399;SDS011;45045;45.440;9.178;2023-05-07T01:52:56;11.00;;;4.85;;
32399;SDS011;45045;45.440;9.178;2023-05-07T01:55:22;23.48;;;15.38;;
32399;SDS011;45045;45.440;9.178;2023-05-07T01:57:48;12.65;;;8.77;;
32399;SDS011;45045;45.440;9.178;2023-05-07T02:00:14;24.67;;;9.90;;
32399;SDS011;45045;45.440;9.178;2023-05-07T02:02:40;6.95;;;4.53;;
32399;SDS011;45045;45.440;9.178;2023-05-07T02:05:06;10.82;;;5.22;;
32399;SDS011;45045;45.440;9.178;2023-05-07T02:07:32;13.98;;;7.38;;
32399;SDS011;45045;45.440;9.178;2023-05-07T02:09:58;13.48;;;8.95;;
32399;SDS011;45045;45.440;9.178;2023-05-07T02:12:23;7.70;;;3.35;;
32399;SDS011;45045;45.440;9.178;2023-05-07T02:14:49;6.07;;;4.13;;
32399;SDS011;45045;45.440;9.178;2023-05-07T02:17:15;14.15;;;8.70;;
32399;SDS011;45045;45.440;9.178;2023-05-07T02:19:41;5.22;;;2.15;;
32399;SDS011;45045;45.440;9.178;2023-05-07T02:22:07;4.32;;;2.28;;
32399;SDS011;45045;45.440;9.178;2023-05-07T02:24:33;6.32;;;1.80;;
32399;SDS011;45045;45.440;9.178;2023-05-07T02:26:58;9.35;;;3.05;;
32399;SDS011;45045;45.440;9.178;2023-05-07T02:29:24;6.47;;;3.58;;
32399;SDS011;45045;45.440;9.178;2023-05-07T02:31:50;7.20;;;2.67;;
32399;SDS011;45045;45.440;9.178;2023-05-07T02:34:18;9.65;;;4.38;;
32399;SDS011;45045;45.440;9.178;2023-05-07T02:36:44;5.55;;;1.20;;
32399;SDS011;45045;45.440;9.178;2023-05-07T02:39:10;5.10;;;1.95;;
32399;SDS011;45045;45.440;9.178;2023-05-07T02:41:37;4.68;;;0.90;;
32399;SDS011;45045;45.440;9.178;2023-05-07T02:44:03;2.08;;;0.82;;
32399;SDS011;45045;45.440;9.178;2023-05-07T02:46:28;8.63;;;4.13;;
32399;SDS011;45045;45.440;9.178;2023-05-07T02:48:54;2.58;;;1.13;;
32399;SDS011;45045;45.440;9.178;2023-05-07T02:51:20;3.38;;;0.95;;
32399;SDS011;45045;45.440;9.178;2023-05-07T02:53:47;4.10;;;1.23;;
32399;SDS011;45045;45.440;9.178;2023-05-07T02:56:13;2.30;;;0.95;;
32399;SDS011;45045;45.440;9.178;2023-05-07T02:58:39;7.57;;;2.60;;
32399;SDS011;45045;45.440;9.178;2023-05-07T03:01:05;5.65;;;0.75;;
32399;SDS011;45045;45.440;9.178;2023-05-07T03:03:31;7.30;;;2.92;;
32399;SDS011;45045;45.440;9.178;2023-05-07T03:05:57;3.45;;;1.10;;
32399;SDS011;45045;45.440;9.178;2023-05-07T03:08:22;3.60;;;0.98;;
32399;SDS011;45045;45.440;9.178;2023-05-07T03:10:49;9.20;;;3.90;;
32399;SDS011;45045;45.440;9.178;2023-05-07T03:13:14;5.05;;;2.03;;
32399;SDS011;45045;45.440;9.178;2023-05-07T03:15:40;2.92;;;0.90;;
32399;SDS011;45045;45.440;9.178;2023-05-07T03:18:06;4.32;;;1.08;;
32399;SDS011;45045;45.440;9.178;2023-05-07T03:20:31;4.07;;;1.10;;
32399;SDS011;45045;45.440;9.178;2023-05-07T03:22:57;2.95;;;0.90;;
32399;SDS011;45045;45.440;9.178;2023-05-07T03:25:23;3.92;;;1.25;;
32399;SDS011;45045;45.440;9.178;2023-05-07T03:27:49;3.67;;;1.17;;
32399;SDS011;45045;45.440;9.178;2023-05-07T03:30:15;3.45;;;1.67;;
32399;SDS011;45045;45.440;9.178;2023-05-07T03:32:40;3.05;;;0.88;;
32399;SDS011;45045;45.440;9.178;2023-05-07T03:35:06;5.03;;;2.67;;
32399;SDS011;45045;45.440;9.178;2023-05-07T03:37:32;2.45;;;1.10;;
32399;SDS011;45045;45.440;9.178;2023-05-07T03:39:58;4.45;;;1.60;;
32399;SDS011;45045;45.440;9.178;2023-05-07T03:42:24;3.78;;;1.75;;
32399;SDS011;45045;45.440;9.178;2023-05-07T03:44:49;4.53;;;2.53;;
32399;SDS011;45045;45.440;9.178;2023-05-07T03:47:15;2.55;;;1.00;;
32399;SDS011;45045;45.440;9.178;2023-05-07T03:49:41;3.85;;;1.80;;
32399;SDS011;45045;45.440;9.178;2023-05-07T03:52:07;5.63;;;1.65;;
32399;SDS011;45045;45.440;9.178;2023-05-07T03:54:32;2.55;;;0.90;;
32399;SDS011;45045;45.440;9.178;2023-05-07T03:56:58;3.28;;;0.90;;
32399;SDS011;45045;45.440;9.178;2023-05-07T03:59:24;4.50;;;2.08;;
32399;SDS011;45045;45.440;9.178;2023-05-07T04:01:49;3.00;;;1.58;;
32399;SDS011;45045;45.440;9.178;2023-05-07T04:04:15;2.45;;;0.82;;
32399;SDS011;45045;45.440;9.178;2023-05-07T04:06:41;2.80;;;0.80;;
32399;SDS011;45045;45.440;9.178;2023-05-07T04:09:07;5.47;;;0.80;;
32399;SDS011;45045;45.440;9.178;2023-05-07T04:11:33;3.55;;;1.00;;
32399;SDS011;45045;45.440;9.178;2023-05-07T04:14:00;1.63;;;0.70;;
32399;SDS011;45045;45.440;9.178;2023-05-07T04:16:26;3.75;;;1.38;;
32399;SDS011;45045;45.440;9.178;2023-05-07T04:18:51;3.47;;;1.27;;
32399;SDS011;45045;45.440;9.178;2023-05-07T04:21:18;3.03;;;1.45;;
32399;SDS011;45045;45.440;9.178;2023-05-07T04:23:45;1.63;;;0.80;;
32399;SDS011;45045;45.440;9.178;2023-05-07T04:26:11;3.22;;;1.10;;
32399;SDS011;45045;45.440;9.178;2023-05-07T04:28:38;1.63;;;0.60;;
32399;SDS011;45045;45.440;9.178;2023-05-07T04:31:04;4.18;;;0.80;;
32399;SDS011;45045;45.440;9.178;2023-05-07T04:33:30;2.75;;;0.93;;
32399;SDS011;45045;45.440;9.178;2023-05-07T04:35:56;1.45;;;0.60;;
32399;SDS011;45045;45.440;9.178;2023-05-07T04:38:22;2.83;;;0.80;;
32399;SDS011;45045;45.440;9.178;2023-05-07T04:40:48;1.85;;;0.65;;
32399;SDS011;45045;45.440;9.178;2023-05-07T04:43:14;2.97;;;1.13;;
32399;SDS011;45045;45.440;9.178;2023-05-07T04:45:41;2.17;;;0.80;;
32399;SDS011;45045;45.440;9.178;2023-05-07T04:48:07;2.25;;;0.50;;
32399;SDS011;45045;45.440;9.178;2023-05-07T04:50:34;2.40;;;0.70;;
32399;SDS011;45045;45.440;9.178;2023-05-07T04:53:00;1.00;;;0.40;;
32399;SDS011;45045;45.440;9.178;2023-05-07T04:55:26;2.85;;;0.68;;
32399;SDS011;45045;45.440;9.178;2023-05-07T04:57:52;8.43;;;1.00;;
32399;SDS011;45045;45.440;9.178;2023-05-07T05:00:18;1.58;;;0.52;;
32399;SDS011;45045;45.440;9.178;2023-05-07T05:02:44;2.03;;;0.70;;
32399;SDS011;45045;45.440;9.178;2023-05-07T05:05:11;0.93;;;0.50;;
32399;SDS011;45045;45.440;9.178;2023-05-07T05:07:36;1.33;;;0.60;;
32399;SDS011;45045;45.440;9.178;2023-05-07T05:10:02;2.08;;;0.70;;
32399;SDS011;45045;45.440;9.178;2023-05-07T05:12:30;2.58;;;0.88;;
32399;SDS011;45045;45.440;9.178;2023-05-07T05:14:56;1.73;;;0.63;;
32399;SDS011;45045;45.440;9.178;2023-05-07T05:17:23;3.10;;;0.77;;
32399;SDS011;45045;45.440;9.178;2023-05-07T05:19:48;0.85;;;0.45;;
32399;SDS011;45045;45.440;9.178;2023-05-07T05:22:14;1.92;;;0.70;;
32399;SDS011;45045;45.440;9.178;2023-05-07T05:24:40;1.35;;;0.65;;
32399;SDS011;45045;45.440;9.178;2023-05-07T05:27:06;2.58;;;0.80;;
32399;SDS011;45045;45.440;9.178;2023-05-07T05:29:31;2.78;;;0.88;;
32399;SDS011;45045;45.440;9.178;2023-05-07T05:31:57;2.15;;;0.60;;
32399;SDS011;45045;45.440;9.178;2023-05-07T05:34:23;3.05;;;1.00;;
32399;SDS011;45045;45.440;9.178;2023-05-07T05:36:49;2.28;;;0.85;;
32399;SDS011;45045;45.440;9.178;2023-05-07T05:39:14;1.85;;;0.70;;
32399;SDS011;45045;45.440;9.178;2023-05-07T05:41:40;2.08;;;0.75;;
32399;SDS011;45045;45.440;9.178;2023-05-07T05:44:06;1.55;;;0.68;;
32399;SDS011;45045;45.440;9.178;2023-05-07T05:46:32;1.80;;;0.60;;
32399;SDS011;45045;45.440;9.178;2023-05-07T05:48:57;2.95;;;0.68;;
32399;SDS011;45045;45.440;9.178;2023-05-07T05:51:23;2.45;;;0.70;;
32399;SDS011;45045;45.440;9.178;2023-05-07T05:53:49;3.25;;;0.90;;
32399;SDS011;45045;45.440;9.178;2023-05-07T05:56:15;2.10;;;0.75;;
32399;SDS011;45045;45.440;9.178;2023-05-07T05:58:41;2.05;;;0.90;;
32399;SDS011;45045;45.440;9.178;2023-05-07T06:01:07;3.35;;;0.70;;
32399;SDS011;45045;45.440;9.178;2023-05-07T06:03:32;2.00;;;0.70;;
32399;SDS011;45045;45.440;9.178;2023-05-07T06:05:58;1.30;;;0.60;;
32399;SDS011;45045;45.440;9.178;2023-05-07T06:08:25;4.32;;;1.42;;
32399;SDS011;45045;45.440;9.178;2023-05-07T06:10:54;5.53;;;2.50;;
32399;SDS011;45045;45.440;9.178;2023-05-07T06:13:20;4.57;;;1.75;;
32399;SDS011;45045;45.440;9.178;2023-05-07T06:15:46;3.72;;;1.80;;
32399;SDS011;45045;45.440;9.178;2023-05-07T06:18:11;3.25;;;0.98;;
32399;SDS011;45045;45.440;9.178;2023-05-07T06:20:37;3.03;;;0.88;;
32399;SDS011;45045;45.440;9.178;2023-05-07T06:23:03;2.58;;;1.02;;
32399;SDS011;45045;45.440;9.178;2023-05-07T06:25:28;4.07;;;1.10;;
32399;SDS011;45045;45.440;9.178;2023-05-07T06:27:54;1.60;;;0.80;;
32399;SDS011;45045;45.440;9.178;2023-05-07T06:30:20;1.77;;;0.75;;
32399;SDS011;45045;45.440;9.178;2023-05-07T06:32:46;3.35;;;0.70;;
32399;SDS011;45045;45.440;9.178;2023-05-07T06:35:11;2.70;;;1.17;;
32399;SDS011;45045;45.440;9.178;2023-05-07T06:37:37;2.13;;;0.98;;
32399;SDS011;45045;45.440;9.178;2023-05-07T06:40:05;2.13;;;1.10;;
32399;SDS011;45045;45.440;9.178;2023-05-07T06:42:32;2.92;;;0.82;;
32399;SDS011;45045;45.440;9.178;2023-05-07T06:44:57;3.38;;;0.98;;
32399;SDS011;45045;45.440;9.178;2023-05-07T06:47:23;1.92;;;0.90;;
32399;SDS011;45045;45.440;9.178;2023-05-07T06:49:49;2.22;;;0.80;;
32399;SDS011;45045;45.440;9.178;2023-05-07T06:52:15;3.65;;;1.00;;
32399;SDS011;45045;45.440;9.178;2023-05-07T06:54:40;2.00;;;0.80;;
32399;SDS011;45045;45.440;9.178;2023-05-07T06:57:06;1.88;;;0.88;;
32399;SDS011;45045;45.440;9.178;2023-05-07T06:59:32;1.98;;;0.80;;
32399;SDS011;45045;45.440;9.178;2023-05-07T07:01:58;3.40;;;0.90;;
32399;SDS011;45045;45.440;9.178;2023-05-07T07:04:23;5.30;;;1.30;;
32399;SDS011;45045;45.440;9.178;2023-05-07T07:06:52;3.05;;;0.88;;
32399;SDS011;45045;45.440;9.178;2023-05-07T07:09:19;2.63;;;1.05;;
32399;SDS011;45045;45.440;9.178;2023-05-07T07:11:44;3.33;;;0.70;;
32399;SDS011;45045;45.440;9.178;2023-05-07T07:14:10;1.95;;;0.82;;
32399;SDS011;45045;45.440;9.178;2023-05-07T07:16:36;2.40;;;1.00;;
32399;SDS011;45045;45.440;9.178;2023-05-07T07:19:02;2.50;;;0.90;;
32399;SDS011;45045;45.440;9.178;2023-05-07T07:21:28;2.53;;;0.90;;
32399;SDS011;45045;45.440;9.178;2023-05-07T07:23:53;3.15;;;1.30;;
32399;SDS011;45045;45.440;9.178;2023-05-07T07:26:19;3.60;;;1.00;;
32399;SDS011;45045;45.440;9.178;2023-05-07T07:28:45;4.68;;;0.90;;
32399;SDS011;45045;45.440;9.178;2023-05-07T07:31:12;3.80;;;0.70;;
32399;SDS011;45045;45.440;9.178;2023-05-07T07:33:38;2.88;;;1.13;;
32399;SDS011;45045;45.440;9.178;2023-05-07T07:36:04;2.47;;;1.00;;
32399;SDS011;45045;45.440;9.178;2023-05-07T07:38:31;4.10;;;1.00;;
32399;SDS011;45045;45.440;9.178;2023-05-07T07:40:57;3.78;;;1.50;;
32399;SDS011;45045;45.440;9.178;2023-05-07T07:43:22;3.38;;;1.40;;
32399;SDS011;45045;45.440;9.178;2023-05-07T07:45:48;3.70;;;1.27;;
32399;SDS011;45045;45.440;9.178;2023-05-07T07:48:14;2.95;;;1.20;;
32399;SDS011;45045;45.440;9.178;2023-05-07T07:50:40;3.22;;;1.10;;
32399;SDS011;45045;45.440;9.178;2023-05-07T07:53:06;3.10;;;1.05;;
32399;SDS011;45045;45.440;9.178;2023-05-07T07:55:31;3.53;;;1.40;;
32399;SDS011;45045;45.440;9.178;2023-05-07T07:57:57;3.13;;;1.10;;
32399;SDS011;45045;45.440;9.178;2023-05-07T08:00:23;3.65;;;1.02;;
32399;SDS011;45045;45.440;9.178;2023-05-07T08:02:49;3.53;;;1.13;;
32399;SDS011;45045;45.440;9.178;2023-05-07T08:05:14;2.35;;;1.02;;
32399;SDS011;45045;45.440;9.178;2023-05-07T08:07:40;4.75;;;1.98;;
32399;SDS011;45045;45.440;9.178;2023-05-07T08:10:06;6.93;;;3.00;;
32399;SDS011;45045;45.440;9.178;2023-05-07T08:12:32;2.83;;;0.85;;
32399;SDS011;45045;45.440;9.178;2023-05-07T08:14:58;4.20;;;2.33;;
32399;SDS011;45045;45.440;9.178;2023-05-07T08:17:24;2.33;;;0.77;;
32399;SDS011;45045;45.440;9.178;2023-05-07T08:19:49;6.32;;;1.38;;
32399;SDS011;45045;45.440;9.178;2023-05-07T08:22:15;3.85;;;1.20;;
32399;SDS011;45045;45.440;9.178;2023-05-07T08:24:43;2.08;;;0.90;;
32399;SDS011;45045;45.440;9.178;2023-05-07T08:27:09;2.47;;;1.02;;
32399;SDS011;45045;45.440;9.178;2023-05-07T08:29:35;4.65;;;1.25;;
32399;SDS011;45045;45.440;9.178;2023-05-07T08:32:01;2.65;;;0.90;;
32399;SDS011;45045;45.440;9.178;2023-05-07T08:34:26;3.08;;;1.10;;
32399;SDS011;45045;45.440;9.178;2023-05-07T08:36:52;2.30;;;1.02;;
32399;SDS011;45045;45.440;9.178;2023-05-07T08:39:18;2.38;;;0.73;;
32399;SDS011;45045;45.440;9.178;2023-05-07T08:41:44;1.80;;;0.60;;
32399;SDS011;45045;45.440;9.178;2023-05-07T08:44:13;3.72;;;0.90;;
32399;SDS011;45045;45.440;9.178;2023-05-07T08:46:39;3.97;;;1.20;;
32399;SDS011;45045;45.440;9.178;2023-05-07T08:49:06;3.35;;;1.13;;
32399;SDS011;45045;45.440;9.178;2023-05-07T08:51:33;3.72;;;1.10;;
32399;SDS011;45045;45.440;9.178;2023-05-07T08:54:00;4.20;;;1.35;;
32399;SDS011;45045;45.440;9.178;2023-05-07T08:56:27;5.38;;;1.60;;
32399;SDS011;45045;45.440;9.178;2023-05-07T08:58:53;3.55;;;1.40;;
32399;SDS011;45045;45.440;9.178;2023-05-07T09:01:23;3.93;;;1.40;;
32399;SDS011;45045;45.440;9.178;2023-05-07T09:03:50;3.75;;;1.70;;
32399;SDS011;45045;45.440;9.178;2023-05-07T09:06:16;4.45;;;1.70;;
32399;SDS011;45045;45.440;9.178;2023-05-07T09:08:48;3.25;;;1.42;;
32399;SDS011;45045;45.440;9.178;2023-05-07T09:11:16;5.32;;;1.83;;
32399;SDS011;45045;45.440;9.178;2023-05-07T09:13:44;3.50;;;1.48;;
32399;SDS011;45045;45.440;9.178;2023-05-07T09:16:10;4.03;;;1.50;;
32399;SDS011;45045;45.440;9.178;2023-05-07T09:18:40;4.03;;;1.50;;
32399;SDS011;45045;45.440;9.178;2023-05-07T09:21:12;2.53;;;1.20;;
32399;SDS011;45045;45.440;9.178;2023-05-07T09:23:40;3.58;;;1.50;;
32399;SDS011;45045;45.440;9.178;2023-05-07T09:26:06;3.75;;;1.67;;
32399;SDS011;45045;45.440;9.178;2023-05-07T09:28:39;5.45;;;1.70;;
32399;SDS011;45045;45.440;9.178;2023-05-07T09:31:09;5.25;;;1.60;;
32399;SDS011;45045;45.440;9.178;2023-05-07T09:33:35;2.70;;;1.35;;
32399;SDS011;45045;45.440;9.178;2023-05-07T09:36:02;4.35;;;2.03;;
32399;SDS011;45045;45.440;9.178;2023-05-07T09:38:32;3.40;;;1.58;;
32399;SDS011;45045;45.440;9.178;2023-05-07T09:41:09;3.03;;;1.40;;
32399;SDS011;45045;45.440;9.178;2023-05-07T09:43:36;5.95;;;1.90;;
32399;SDS011;45045;45.440;9.178;2023-05-07T09:46:11;2.75;;;1.40;;
32399;SDS011;45045;45.440;9.178;2023-05-07T09:48:39;2.92;;;1.55;;
32399;SDS011;45045;45.440;9.178;2023-05-07T09:51:29;4.15;;;1.80;;
32399;SDS011;45045;45.440;9.178;2023-05-07T09:54:04;3.83;;;1.77;;
32399;SDS011;45045;45.440;9.178;2023-05-07T09:56:31;4.82;;;1.80;;
32399;SDS011;45045;45.440;9.178;2023-05-07T09:58:59;4.25;;;1.85;;
32399;SDS011;45045;45.440;9.178;2023-05-07T10:01:25;4.82;;;2.20;;
32399;SDS011;45045;45.440;9.178;2023-05-07T10:03:52;3.28;;;1.77;;
32399;SDS011;45045;45.440;9.178;2023-05-07T10:06:20;5.18;;;2.38;;
32399;SDS011;45045;45.440;9.178;2023-05-07T10:08:46;5.10;;;2.22;;
32399;SDS011;45045;45.440;9.178;2023-05-07T10:11:13;5.22;;;2.33;;
32399;SDS011;45045;45.440;9.178;2023-05-07T10:13:41;6.18;;;2.35;;
32399;SDS011;45045;45.440;9.178;2023-05-07T10:16:07;4.68;;;2.05;;
32399;SDS011;45045;45.440;9.178;2023-05-07T10:18:33;7.07;;;2.10;;
32399;SDS011;45045;45.440;9.178;2023-05-07T10:21:11;3.63;;;1.80;;
32399;SDS011;45045;45.440;9.178;2023-05-07T10:23:53;4.43;;;1.77;;
32399;SDS011;45045;45.440;9.178;2023-05-07T10:26:35;4.43;;;1.60;;
32399;SDS011;45045;45.440;9.178;2023-05-07T10:29:07;3.15;;;1.67;;
32399;SDS011;45045;45.440;9.178;2023-05-07T10:31:49;4.40;;;1.80;;
32399;SDS011;45045;45.440;9.178;2023-05-07T10:34:36;3.70;;;1.85;;
32399;SDS011;45045;45.440;9.178;2023-05-07T10:37:05;5.53;;;2.08;;
32399;SDS011;45045;45.440;9.178;2023-05-07T10:39:32;3.35;;;1.67;;
32399;SDS011;45045;45.440;9.178;2023-05-07T10:42:07;4.63;;;1.73;;
32399;SDS011;45045;45.440;9.178;2023-05-07T10:44:33;3.00;;;1.48;;
32399;SDS011;45045;45.440;9.178;2023-05-07T10:47:10;5.10;;;2.05;;
32399;SDS011;45045;45.440;9.178;2023-05-07T10:49:38;4.10;;;1.40;;
32399;SDS011;45045;45.440;9.178;2023-05-07T10:52:31;3.75;;;1.63;;
32399;SDS011;45045;45.440;9.178;2023-05-07T10:58:10;4.13;;;1.88;;
32399;SDS011;45045;45.440;9.178;2023-05-07T11:00:46;3.88;;;1.80;;
32399;SDS011;45045;45.440;9.178;2023-05-07T11:03:13;3.67;;;1.75;;
32399;SDS011;45045;45.440;9.178;2023-05-07T11:05:40;4.95;;;2.47;;
32399;SDS011;45045;45.440;9.178;2023-05-07T11:08:06;6.25;;;2.30;;
32399;SDS011;45045;45.440;9.178;2023-05-07T11:13:40;6.43;;;2.13;;
32399;SDS011;45045;45.440;9.178;2023-05-07T11:18:48;4.72;;;2.78;;
32399;SDS011;45045;45.440;9.178;2023-05-07T11:21:34;3.75;;;2.22;;
32399;SDS011;45045;45.440;9.178;2023-05-07T11:24:01;4.20;;;2.40;;
32399;SDS011;45045;45.440;9.178;2023-05-07T11:26:29;4.03;;;2.35;;
32399;SDS011;45045;45.440;9.178;2023-05-07T11:28:57;3.60;;;1.90;;
32399;SDS011;45045;45.440;9.178;2023-05-07T11:31:25;4.18;;;1.90;;
32399;SDS011;45045;45.440;9.178;2023-05-07T11:33:54;6.55;;;3.50;;
32399;SDS011;45045;45.440;9.178;2023-05-07T11:36:21;4.25;;;2.90;;
32399;SDS011;45045;45.440;9.178;2023-05-07T11:38:48;3.33;;;2.08;;
32399;SDS011;45045;45.440;9.178;2023-05-07T11:41:15;5.93;;;2.65;;
32399;SDS011;45045;45.440;9.178;2023-05-07T11:43:54;3.75;;;1.90;;
32399;SDS011;45045;45.440;9.178;2023-05-07T11:46:23;5.13;;;2.38;;
32399;SDS011;45045;45.440;9.178;2023-05-07T11:48:49;3.78;;;2.00;;
32399;SDS011;45045;45.440;9.178;2023-05-07T11:51:18;3.65;;;1.80;;
32399;SDS011;45045;45.440;9.178;2023-05-07T11:53:45;6.80;;;2.70;;
32399;SDS011;45045;45.440;9.178;2023-05-07T11:56:14;3.75;;;1.77;;
32399;SDS011;45045;45.440;9.178;2023-05-07T11:58:41;4.25;;;1.63;;
32399;SDS011;45045;45.440;9.178;2023-05-07T12:01:08;6.80;;;3.67;;
32399;SDS011;45045;45.440;9.178;2023-05-07T12:03:35;3.30;;;2.28;;
32399;SDS011;45045;45.440;9.178;2023-05-07T12:06:07;3.45;;;1.95;;
32399;SDS011;45045;45.440;9.178;2023-05-07T12:08:35;4.68;;;2.80;;
32399;SDS011;45045;45.440;9.178;2023-05-07T12:11:03;3.85;;;1.38;;
32399;SDS011;45045;45.440;9.178;2023-05-07T12:13:31;3.83;;;2.03;;
32399;SDS011;45045;45.440;9.178;2023-05-07T12:15:57;4.32;;;1.80;;
32399;SDS011;45045;45.440;9.178;2023-05-07T12:18:23;4.13;;;2.25;;
32399;SDS011;45045;45.440;9.178;2023-05-07T12:20:49;5.68;;;2.20;;
32399;SDS011;45045;45.440;9.178;2023-05-07T12:23:16;3.83;;;2.42;;
32399;SDS011;45045;45.440;9.178;2023-05-07T12:25:42;3.60;;;2.25;;
32399;SDS011;45045;45.440;9.178;2023-05-07T12:28:18;10.63;;;6.70;;
32399;SDS011;45045;45.440;9.178;2023-05-07T12:30:45;4.07;;;1.73;;
32399;SDS011;45045;45.440;9.178;2023-05-07T12:33:16;2.80;;;1.70;;
32399;SDS011;45045;45.440;9.178;2023-05-07T12:35:43;3.85;;;1.08;;
32399;SDS011;45045;45.440;9.178;2023-05-07T12:38:13;3.47;;;1.77;;
32399;SDS011;45045;45.440;9.178;2023-05-07T12:43:20;2.70;;;1.42;;
32399;SDS011;45045;45.440;9.178;2023-05-07T12:45:47;2.03;;;1.00;;
32399;SDS011;45045;45.440;9.178;2023-05-07T12:48:15;4.05;;;1.27;;
32399;SDS011;45045;45.440;9.178;2023-05-07T12:50:41;2.45;;;1.13;;
32399;SDS011;45045;45.440;9.178;2023-05-07T12:53:08;4.20;;;2.13;;
32399;SDS011;45045;45.440;9.178;2023-05-07T12:55:44;5.93;;;2.17;;
32399;SDS011;45045;45.440;9.178;2023-05-07T12:58:17;3.25;;;1.75;;
32399;SDS011;45045;45.440;9.178;2023-05-07T13:00:49;3.13;;;1.20;;
32399;SDS011;45045;45.440;9.178;2023-05-07T13:03:37;3.78;;;1.20;;
32399;SDS011;45045;45.440;9.178;2023-05-07T13:06:03;2.97;;;1.30;;
32399;SDS011;45045;45.440;9.178;2023-05-07T13:08:32;6.45;;;4.13;;
32399;SDS011;45045;45.440;9.178;2023-05-07T13:11:03;3.97;;;2.35;;
32399;SDS011;45045;45.440;9.178;2023-05-07T13:13:33;3.55;;;1.45;;
32399;SDS011;45045;45.440;9.178;2023-05-07T13:16:00;2.90;;;1.50;;
32399;SDS011;45045;45.440;9.178;2023-05-07T13:18:29;2.85;;;1.52;;
32399;SDS011;45045;45.440;9.178;2023-05-07T13:20:55;2.90;;;1.42;;
32399;SDS011;45045;45.440;9.178;2023-05-07T13:23:21;3.92;;;1.20;;
32399;SDS011;45045;45.440;9.178;2023-05-07T13:25:48;2.53;;;1.20;;
32399;SDS011;45045;45.440;9.178;2023-05-07T13:28:14;2.55;;;1.30;;
32399;SDS011;45045;45.440;9.178;2023-05-07T13:30:40;1.80;;;0.90;;
32399;SDS011;45045;45.440;9.178;2023-05-07T13:33:06;2.17;;;1.02;;
32399;SDS011;45045;45.440;9.178;2023-05-07T13:35:33;2.40;;;1.10;;
32399;SDS011;45045;45.440;9.178;2023-05-07T13:37:58;1.90;;;1.00;;
32399;SDS011;45045;45.440;9.178;2023-05-07T13:40:24;2.38;;;1.13;;
32399;SDS011;45045;45.440;9.178;2023-05-07T13:42:50;2.20;;;1.00;;
32399;SDS011;45045;45.440;9.178;2023-05-07T13:45:17;3.40;;;1.75;;
32399;SDS011;45045;45.440;9.178;2023-05-07T13:47:43;3.20;;;1.70;;
32399;SDS011;45045;45.440;9.178;2023-05-07T13:50:10;7.82;;;5.00;;
32399;SDS011;45045;45.440;9.178;2023-05-07T13:52:40;4.03;;;1.83;;
32399;SDS011;45045;45.440;9.178;2023-05-07T13:55:08;3.83;;;1.15;;
32399;SDS011;45045;45.440;9.178;2023-05-07T13:57:35;3.97;;;1.58;;
32399;SDS011;45045;45.440;9.178;2023-05-07T14:00:02;3.40;;;1.20;;
32399;SDS011;45045;45.440;9.178;2023-05-07T14:02:30;2.40;;;1.17;;
32399;SDS011;45045;45.440;9.178;2023-05-07T14:04:56;3.30;;;1.20;;
32399;SDS011;45045;45.440;9.178;2023-05-07T14:07:22;2.15;;;1.00;;
32399;SDS011;45045;45.440;9.178;2023-05-07T14:09:47;2.72;;;1.10;;
32399;SDS011;45045;45.440;9.178;2023-05-07T14:12:14;5.20;;;1.17;;
32399;SDS011;45045;45.440;9.178;2023-05-07T14:14:40;3.03;;;1.38;;
32399;SDS011;45045;45.440;9.178;2023-05-07T14:17:06;2.05;;;0.98;;
32399;SDS011;45045;45.440;9.178;2023-05-07T14:19:33;2.97;;;1.15;;
32399;SDS011;45045;45.440;9.178;2023-05-07T14:21:59;2.10;;;0.90;;
32399;SDS011;45045;45.440;9.178;2023-05-07T14:24:24;2.95;;;1.00;;
32399;SDS011;45045;45.440;9.178;2023-05-07T14:26:50;2.28;;;1.20;;
32399;SDS011;45045;45.440;9.178;2023-05-07T14:29:16;2.55;;;1.30;;
32399;SDS011;45045;45.440;9.178;2023-05-07T14:31:44;3.53;;;1.27;;
32399;SDS011;45045;45.440;9.178;2023-05-07T14:34:10;2.53;;;1.17;;
32399;SDS011;45045;45.440;9.178;2023-05-07T14:36:36;3.50;;;1.38;;
32399;SDS011;45045;45.440;9.178;2023-05-07T14:39:03;3.60;;;0.90;;
32399;SDS011;45045;45.440;9.178;2023-05-07T14:41:29;3.65;;;1.20;;
32399;SDS011;45045;45.440;9.178;2023-05-07T14:43:56;2.38;;;1.17;;
32399;SDS011;45045;45.440;9.178;2023-05-07T14:46:23;2.63;;;1.13;;
32399;SDS011;45045;45.440;9.178;2023-05-07T14:48:49;3.75;;;1.08;;
32399;SDS011;45045;45.440;9.178;2023-05-07T14:51:15;1.73;;;1.00;;
32399;SDS011;45045;45.440;9.178;2023-05-07T14:53:41;3.03;;;1.42;;
32399;SDS011;45045;45.440;9.178;2023-05-07T14:56:07;4.18;;;1.30;;
32399;SDS011;45045;45.440;9.178;2023-05-07T14:58:33;4.05;;;1.42;;